createdAt,value
2023-03-22T00:02:48.829Z,100267.19
2023-03-22T00:05:57.192Z,100265.47
2023-03-22T00:08:59.201Z,100263.75
2023-03-22T00:12:01.001Z,100260.28
2023-03-22T00:15:02.858Z,100259.41
2023-03-22T00:18:05.852Z,100219.59
2023-03-22T00:21:12.443Z,100259.50
2023-03-22T00:24:14.282Z,100237.78
2023-03-22T00:27:15.955Z,100250.78
2023-03-22T00:30:18.027Z,100242.88
2023-03-22T00:33:19.894Z,100247.06
2023-03-22T00:36:21.727Z,100234.88
2023-03-22T00:39:27.083Z,100239.19
2023-03-22T00:42:28.832Z,100227.00
2023-03-22T00:45:30.676Z,100229.56
2023-03-22T00:48:32.864Z,100224.38
2023-03-22T00:51:34.533Z,100225.13
2023-03-22T00:54:36.326Z,100225.16
2023-03-22T00:57:38.232Z,100220.84
2023-03-22T01:00:40.282Z,100225.25
2023-03-22T01:03:43.752Z,100219.22
2023-03-22T01:06:49.014Z,100211.41
2023-03-22T01:09:51.969Z,100212.41
2023-03-22T01:12:54.154Z,100212.44
2023-03-22T01:15:56.328Z,100195.97
2023-03-22T01:18:58.392Z,100205.47
2023-03-22T01:22:00.671Z,100214.25
2023-03-22T01:25:03.167Z,100212.50
2023-03-22T01:28:06.900Z,100191.78
2023-03-22T01:31:08.888Z,100219.63
2023-03-22T01:34:10.738Z,100204.09
2023-03-22T01:37:13.080Z,100184.13
2023-03-22T01:40:19.547Z,100208.38
2023-03-22T01:43:21.862Z,100210.13
2023-03-22T01:46:23.604Z,100220.56
2023-03-22T01:49:33.758Z,100214.38
2023-03-22T01:52:37.756Z,100203.06
2023-03-22T01:55:47.308Z,100206.41
2023-03-22T01:58:56.700Z,100189.97
2023-03-22T02:02:07.770Z,100210.88
2023-03-22T02:05:12.375Z,100202.16
2023-03-22T02:08:15.053Z,100208.13
2023-03-22T02:11:42.880Z,100209.00
2023-03-22T02:15:10.494Z,100207.22
2023-03-22T02:18:51.897Z,100209.03
2023-03-22T02:21:56.330Z,100203.00
2023-03-22T02:25:31.227Z,100209.13
2023-03-22T02:28:46.244Z,100214.44
2023-03-22T02:32:06.741Z,100222.44
2023-03-22T02:35:27.131Z,100224.25
2023-03-22T02:38:52.581Z,100222.56
2023-03-22T02:42:12.574Z,100220.88
2023-03-22T02:45:21.702Z,100221.75
2023-03-22T02:48:39.523Z,100220.03
2023-03-22T02:51:48.022Z,100224.41
2023-03-22T02:55:08.056Z,100214.72
2023-03-22T02:58:15.704Z,100216.66
2023-03-22T03:01:29.313Z,100222.69
2023-03-22T03:04:35.607Z,100211.53
2023-03-22T03:07:38.691Z,100221.16
2023-03-22T03:10:42.546Z,100201.25
2023-03-22T03:13:47.855Z,100205.66
2023-03-22T03:17:06.422Z,100215.19
2023-03-22T03:21:03.330Z,100216.81
2023-03-22T03:24:30.568Z,100211.53
2023-03-22T03:27:49.862Z,100204.50
2023-03-22T03:31:06.662Z,100207.00
2023-03-22T03:34:22.215Z,100209.53
2023-03-22T03:37:31.693Z,100200.03
2023-03-22T03:40:37.757Z,100211.25
2023-03-22T03:43:42.097Z,100206.03
2023-03-22T03:46:46.072Z,100203.38
2023-03-22T03:49:47.930Z,100204.19
2023-03-22T03:52:49.834Z,100204.16
2023-03-22T03:55:51.607Z,100202.41
2023-03-22T03:58:53.392Z,100214.56
2023-03-22T04:01:55.676Z,100213.59
2023-03-22T04:05:04.083Z,100211.81
2023-03-22T04:08:05.825Z,100220.44
2023-03-22T04:11:08.095Z,100219.53
2023-03-22T04:14:10.431Z,100213.38
2023-03-22T04:17:13.024Z,100195.19
2023-03-22T04:20:15.248Z,100211.72
2023-03-22T04:23:17.397Z,100229.06
2023-03-22T04:26:21.841Z,100223.84
2023-03-22T04:29:48.237Z,100235.97
2023-03-22T04:33:07.945Z,100240.25
2023-03-22T04:36:48.080Z,100219.31
2023-03-22T04:40:01.345Z,100224.56
2023-03-22T04:43:26.050Z,100227.16
2023-03-22T04:46:36.874Z,100238.47
2023-03-22T04:49:41.867Z,100228.16
2023-03-22T04:52:44.174Z,100246.38
2023-03-22T04:55:46.199Z,100244.59
2023-03-22T04:58:48.205Z,100242.00
2023-03-22T05:01:51.659Z,100217.72
2023-03-22T05:04:56.956Z,100224.63
2023-03-22T05:08:14.419Z,100259.31
2023-03-22T05:11:20.271Z,100249.63
2023-03-22T05:14:34.004Z,100226.28
2023-03-22T05:17:36.070Z,100238.41
2023-03-22T05:20:38.579Z,100249.72
2023-03-22T05:23:58.195Z,100260.94
2023-03-22T05:27:03.990Z,100247.00
2023-03-22T05:30:08.044Z,100247.75
2023-03-22T05:33:22.016Z,100267.50
2023-03-22T05:36:29.687Z,100269.88
2023-03-22T05:39:54.580Z,100247.13
2023-03-22T05:43:01.668Z,100261.66
2023-03-22T05:46:06.553Z,100254.56
2023-03-22T05:49:19.819Z,100275.06
2023-03-22T05:52:21.781Z,100280.13
2023-03-22T05:55:44.892Z,100284.16
2023-03-22T05:58:47.265Z,100278.53
2023-03-22T06:01:52.136Z,100289.66
2023-03-22T06:04:57.808Z,100287.56
2023-03-22T06:08:00.267Z,100294.41
2023-03-22T06:11:02.169Z,100299.16
2023-03-22T06:14:04.690Z,100297.97
2023-03-22T06:17:21.348Z,100273.59
2023-03-22T06:20:25.848Z,100299.34
2023-03-22T06:23:34.234Z,100297.66
2023-03-22T06:26:36.150Z,100296.63
2023-03-22T06:29:38.134Z,100301.97
2023-03-22T06:32:41.556Z,100305.97
2023-03-22T06:35:44.429Z,100304.09
2023-03-22T06:38:50.873Z,100299.13
2023-03-22T06:41:52.600Z,100306.09
2023-03-22T06:44:54.267Z,100303.72
2023-03-22T06:48:06.116Z,100300.53
2023-03-22T06:51:32.173Z,100302.28
2023-03-22T06:54:34.265Z,100304.63
2023-03-22T06:57:36.119Z,100289.47
2023-03-22T07:00:39.012Z,100300.97
2023-03-22T07:03:42.418Z,100301.06
2023-03-22T07:06:48.439Z,100315.84
2023-03-22T07:09:51.268Z,100307.44
2023-03-22T07:12:53.163Z,100307.38
2023-03-22T07:16:00.175Z,100317.91
2023-03-22T07:19:10.146Z,100325.53
2023-03-22T07:22:12.081Z,100318.47
2023-03-22T07:25:13.893Z,100318.44
2023-03-22T07:28:16.479Z,100317.50
2023-03-22T07:31:18.760Z,100326.97
2023-03-22T07:34:27.210Z,100319.91
2023-03-22T07:37:49.262Z,100316.03
2023-03-22T07:40:57.231Z,100327.81
2023-03-22T07:44:17.438Z,100323.13
2023-03-22T07:47:39.866Z,100327.97
2023-03-22T07:51:03.047Z,100311.72
2023-03-22T07:54:07.597Z,100321.88
2023-03-22T07:57:09.916Z,100318.78
2023-03-22T08:00:18.595Z,100305.34
2023-03-22T08:03:30.458Z,100323.16
2023-03-22T08:06:42.722Z,100326.47
2023-03-22T08:09:49.656Z,100306.81
2023-03-22T08:12:51.392Z,100313.66
2023-03-22T08:15:59.130Z,100321.97
2023-03-22T08:19:01.918Z,100307.94
2023-03-22T08:22:56.837Z,100320.19
2023-03-22T08:26:02.135Z,100323.63
2023-03-22T08:29:04.971Z,100316.94
2023-03-22T08:32:10.669Z,100325.81
2023-03-22T08:35:12.985Z,100325.66
2023-03-22T08:38:16.868Z,100314.53
2023-03-22T08:41:23.674Z,100325.00
2023-03-22T08:44:26.945Z,100323.31
2023-03-22T08:47:30.349Z,100332.53
2023-03-22T08:50:37.670Z,100319.41
2023-03-22T08:53:51.447Z,100321.59
2023-03-22T08:57:15.481Z,100320.13
2023-03-22T09:00:48.714Z,100322.75
2023-03-22T09:04:02.343Z,100322.16
2023-03-22T09:07:05.303Z,100322.38
2023-03-22T09:10:09.367Z,100325.69
2023-03-22T09:13:16.858Z,100314.84
2023-03-22T09:16:26.131Z,100312.44
2023-03-22T09:19:30.494Z,100312.16
2023-03-22T09:22:33.037Z,100312.97
2023-03-22T09:25:37.278Z,100319.16
2023-03-22T09:28:40.137Z,100320.91
2023-03-22T09:31:44.660Z,100317.41
2023-03-22T09:34:57.632Z,100306.88
2023-03-22T09:38:06.128Z,100311.72
2023-03-22T09:41:16.821Z,100308.09
2023-03-22T09:44:31.944Z,100308.75
2023-03-22T09:47:44.876Z,100297.34
2023-03-22T09:50:51.988Z,100302.84
2023-03-22T09:53:54.196Z,100305.91
2023-03-22T09:57:00.084Z,100298.81
2023-03-22T10:00:46.790Z,100307.53
2023-03-22T10:04:10.068Z,100297.59
2023-03-22T10:07:20.416Z,100298.28
2023-03-22T10:10:24.271Z,100287.69
2023-03-22T10:13:48.951Z,100281.53
2023-03-22T10:16:56.542Z,100280.47
2023-03-22T10:20:09.091Z,100286.16
2023-03-22T10:23:17.236Z,100278.16
2023-03-22T10:26:20.067Z,100280.88
2023-03-22T10:29:30.658Z,100274.88
2023-03-22T10:32:57.837Z,100285.91
2023-03-22T10:36:02.941Z,100282.50
2023-03-22T10:39:17.229Z,100277.91
2023-03-22T10:42:26.942Z,100276.09
2023-03-22T10:45:34.489Z,100276.75
2023-03-22T10:48:42.089Z,100275.28
2023-03-22T10:51:49.808Z,100270.06
2023-03-22T10:54:52.083Z,100263.06
2023-03-22T10:58:18.359Z,100270.34
2023-03-22T11:01:33.507Z,100271.34
2023-03-22T11:04:38.038Z,100264.47
2023-03-22T11:07:44.590Z,100235.78
2023-03-22T11:10:52.063Z,100260.31
2023-03-22T11:14:00.675Z,100246.91
2023-03-22T11:17:06.159Z,100252.13
2023-03-22T11:20:16.172Z,100222.88
2023-03-22T11:23:20.781Z,100221.41
2023-03-22T11:26:35.690Z,100212.94
2023-03-22T11:29:48.458Z,100223.38
2023-03-22T11:33:03.877Z,100237.19
2023-03-22T11:36:17.171Z,100219.03
2023-03-22T11:39:21.891Z,100218.28
2023-03-22T11:42:24.146Z,100218.28
2023-03-22T11:45:36.144Z,100210.09
2023-03-22T11:48:42.255Z,100212.53
2023-03-22T11:51:46.205Z,100213.88
2023-03-22T11:54:49.869Z,100208.06
2023-03-22T11:57:55.975Z,100201.41
2023-03-22T12:01:02.836Z,100210.13
2023-03-22T12:04:10.418Z,100199.66
2023-03-22T12:07:17.179Z,100202.22
2023-03-22T12:10:41.053Z,100195.97
2023-03-22T12:14:00.579Z,100202.44
2023-03-22T12:17:11.477Z,100194.16
2023-03-22T12:20:33.096Z,100175.81
2023-03-22T12:23:35.357Z,100185.75
2023-03-22T12:26:37.768Z,100179.47
2023-03-22T12:29:46.805Z,100183.38
2023-03-22T12:33:21.326Z,100158.56
2023-03-22T12:36:33.025Z,100160.75
2023-03-22T12:39:46.757Z,100170.28
2023-03-22T12:43:00.240Z,100167.78
2023-03-22T12:46:05.857Z,100157.41
2023-03-22T12:49:20.710Z,100157.75
2023-03-22T12:52:44.676Z,100144.19
2023-03-22T12:55:50.000Z,100161.19
2023-03-22T12:59:03.561Z,100149.72
2023-03-22T13:02:19.125Z,100154.16
2023-03-22T13:05:22.058Z,100142.50
2023-03-22T13:08:24.857Z,100132.81
2023-03-22T13:11:27.780Z,100152.75
2023-03-22T13:15:28.256Z,100154.88
2023-03-22T13:18:38.152Z,100159.16
2023-03-22T13:21:41.403Z,100162.75
2023-03-22T13:25:13.158Z,100154.16
2023-03-22T13:28:26.429Z,100150.41
2023-03-22T13:31:42.755Z,100151.34
2023-03-22T13:34:48.618Z,100154.00
2023-03-22T13:37:51.925Z,100142.69
2023-03-22T13:41:04.059Z,100126.34
2023-03-22T13:44:27.555Z,100146.38
2023-03-22T13:47:31.713Z,100150.78
2023-03-22T13:50:35.308Z,100152.81
2023-03-22T13:53:41.410Z,100148.53
2023-03-22T13:56:57.777Z,100150.56
2023-03-22T14:00:21.007Z,100151.19
2023-03-22T14:03:30.617Z,100144.16
2023-03-22T14:06:39.559Z,100134.06
2023-03-22T14:10:00.560Z,100144.50
2023-03-22T14:13:17.354Z,100139.78
2023-03-22T14:16:41.820Z,100141.50
2023-03-22T14:19:44.279Z,100139.25
